createdAt,value
2023-05-24T00:02:46.788Z,10.05
2023-05-24T00:05:50.370Z,11.23
2023-05-24T00:08:53.997Z,10.60
2023-05-24T00:11:57.063Z,10.55
2023-05-24T00:15:00.345Z,11.45
2023-05-24T00:18:03.449Z,10.82
2023-05-24T00:21:07.880Z,9.43
2023-05-24T00:24:11.541Z,10.13
2023-05-24T00:27:15.463Z,9.88
2023-05-24T00:30:18.614Z,9.93
2023-05-24T00:33:23.450Z,9.35
2023-05-24T00:36:26.485Z,9.88
2023-05-24T00:39:29.452Z,9.00
2023-05-24T00:42:32.463Z,11.82
2023-05-24T00:45:36.246Z,10.27
2023-05-24T00:48:40.582Z,11.43
2023-05-24T00:51:43.570Z,8.95
2023-05-24T00:54:46.588Z,9.20
2023-05-24T00:57:49.580Z,9.90
2023-05-24T01:00:52.607Z,9.75
2023-05-24T01:03:57.361Z,9.43
2023-05-24T01:07:10.205Z,11.23
2023-05-24T01:10:18.217Z,9.60
2023-05-24T01:13:47.608Z,10.60
2023-05-24T01:16:52.945Z,8.52
2023-05-24T01:20:06.792Z,10.20
2023-05-24T01:23:41.925Z,10.00
2023-05-24T01:27:03.414Z,10.57
2023-05-24T01:30:07.319Z,10.55
2023-05-24T01:33:10.418Z,11.27
2023-05-24T01:36:13.508Z,10.52
2023-05-24T01:39:17.222Z,13.57
2023-05-24T01:42:33.759Z,11.00
2023-05-24T01:45:41.574Z,11.57
2023-05-24T01:49:07.623Z,11.65
2023-05-24T01:52:16.123Z,10.43
2023-05-24T01:55:19.432Z,10.60
2023-05-24T01:58:23.068Z,10.40
2023-05-24T02:01:26.692Z,10.00
2023-05-24T02:04:29.863Z,10.55
2023-05-24T02:07:32.910Z,11.55
2023-05-24T02:10:38.617Z,10.07
2023-05-24T02:13:41.725Z,10.63
2023-05-24T02:16:47.010Z,9.38
2023-05-24T02:19:50.173Z,9.20
2023-05-24T02:22:53.191Z,9.63
2023-05-24T02:25:56.686Z,9.45
2023-05-24T02:28:59.687Z,10.17
2023-05-24T02:32:02.668Z,10.60
2023-05-24T02:35:06.150Z,10.88
2023-05-24T02:38:09.860Z,11.93
2023-05-24T02:41:17.922Z,13.13
2023-05-24T02:44:20.960Z,11.67
2023-05-24T02:47:23.968Z,12.70
2023-05-24T02:50:26.949Z,10.82
2023-05-24T02:53:31.386Z,11.20
2023-05-24T02:56:34.973Z,10.20
2023-05-24T02:59:38.765Z,9.80
2023-05-24T03:02:42.107Z,10.88
2023-05-24T03:05:45.218Z,11.82
2023-05-24T03:08:49.855Z,10.30
2023-05-24T03:11:54.571Z,13.18
2023-05-24T03:14:57.623Z,11.70
2023-05-24T03:18:00.993Z,16.38
2023-05-24T03:21:04.188Z,12.25
2023-05-24T03:24:08.590Z,12.48
2023-05-24T03:27:12.209Z,11.95
2023-05-24T03:30:17.744Z,14.10
2023-05-24T03:33:29.306Z,14.98
2023-05-24T03:36:32.976Z,13.50
2023-05-24T03:39:36.019Z,12.50
2023-05-24T03:42:57.421Z,11.80
2023-05-24T03:46:26.797Z,12.30
2023-05-24T03:49:31.811Z,13.35
2023-05-24T03:52:34.856Z,12.80
2023-05-24T03:55:39.972Z,11.25
2023-05-24T03:58:43.008Z,12.45
2023-05-24T04:01:46.077Z,14.70
2023-05-24T04:04:50.857Z,11.63
2023-05-24T04:07:53.911Z,12.65
2023-05-24T04:10:56.963Z,14.07
2023-05-24T04:14:02.706Z,12.18
2023-05-24T04:17:08.004Z,14.13
2023-05-24T04:20:12.097Z,13.13
2023-05-24T04:23:15.384Z,13.45
2023-05-24T04:26:21.417Z,14.02
2023-05-24T04:29:26.722Z,15.98
2023-05-24T04:32:30.509Z,12.27
2023-05-24T04:35:33.687Z,11.48
2023-05-24T04:38:38.728Z,13.15
2023-05-24T04:41:41.733Z,12.75
2023-05-24T04:44:45.176Z,13.25
2023-05-24T04:47:48.277Z,13.93
2023-05-24T04:50:55.257Z,12.50
2023-05-24T04:53:59.148Z,15.43
2023-05-24T04:57:02.257Z,13.93
2023-05-24T05:00:07.560Z,13.43
2023-05-24T05:03:13.904Z,16.77
2023-05-24T05:06:17.295Z,14.95
2023-05-24T05:09:21.412Z,18.08
2023-05-24T05:12:42.026Z,17.65
2023-05-24T05:15:45.370Z,15.93
2023-05-24T05:18:48.587Z,15.77
2023-05-24T05:21:55.852Z,16.80
2023-05-24T05:24:59.662Z,16.60
2023-05-24T05:28:03.161Z,17.13
2023-05-24T05:31:06.217Z,16.30
2023-05-24T05:34:12.358Z,14.17
2023-05-24T05:37:16.144Z,15.10
2023-05-24T05:40:19.167Z,13.77
2023-05-24T05:43:22.275Z,15.43
2023-05-24T05:46:28.156Z,14.68
2023-05-24T05:49:36.589Z,17.13
2023-05-24T05:52:39.888Z,15.52
2023-05-24T05:55:43.072Z,14.00
2023-05-24T05:58:46.417Z,13.68
2023-05-24T06:01:50.262Z,13.82
2023-05-24T06:04:53.985Z,14.30
2023-05-24T06:07:57.487Z,13.98
2023-05-24T06:11:01.361Z,13.50
2023-05-24T06:14:07.913Z,14.57
2023-05-24T06:17:14.004Z,14.05
2023-05-24T06:20:17.409Z,12.97
2023-05-24T06:23:23.550Z,12.52
2023-05-24T06:26:30.032Z,14.88
2023-05-24T06:29:33.201Z,12.38
2023-05-24T06:32:37.385Z,11.95
2023-05-24T06:35:40.561Z,12.30
2023-05-24T06:38:46.609Z,14.38
2023-05-24T06:41:54.028Z,12.75
2023-05-24T06:45:01.152Z,11.80
2023-05-24T06:48:04.703Z,12.20
2023-05-24T06:51:08.179Z,13.03
2023-05-24T06:54:11.261Z,14.48
2023-05-24T06:57:14.293Z,13.40
2023-05-24T07:00:17.846Z,14.82
2023-05-24T07:03:21.605Z,11.68
2023-05-24T07:06:25.278Z,11.30
2023-05-24T07:09:28.645Z,13.90
2023-05-24T07:12:32.612Z,12.63
2023-05-24T07:15:35.756Z,12.88
2023-05-24T07:18:42.242Z,12.13
2023-05-24T07:21:45.552Z,12.00
2023-05-24T07:24:48.701Z,12.45
2023-05-24T07:27:51.695Z,14.60
2023-05-24T07:30:54.750Z,12.20
2023-05-24T07:33:57.768Z,13.00
2023-05-24T07:37:04.181Z,12.47
2023-05-24T07:40:11.247Z,14.00
2023-05-24T07:43:14.301Z,13.43
2023-05-24T07:46:17.607Z,14.30
2023-05-24T07:49:20.679Z,13.68
2023-05-24T07:52:24.493Z,16.23
2023-05-24T07:55:28.160Z,12.77
2023-05-24T07:58:31.881Z,12.65
2023-05-24T08:01:35.593Z,15.57
2023-05-24T08:04:38.685Z,11.63
2023-05-24T08:07:42.205Z,12.83
2023-05-24T08:10:45.545Z,13.05
2023-05-24T08:13:51.664Z,13.48
2023-05-24T08:16:54.699Z,11.60
2023-05-24T08:20:01.138Z,11.13
2023-05-24T08:23:04.218Z,11.63
2023-05-24T08:26:07.314Z,13.23
2023-05-24T08:29:10.978Z,13.88
2023-05-24T08:32:14.134Z,13.65
2023-05-24T08:35:21.561Z,11.65
2023-05-24T08:38:25.447Z,11.23
2023-05-24T08:41:29.591Z,10.57
2023-05-24T08:44:32.671Z,10.85
2023-05-24T08:47:36.585Z,9.88
2023-05-24T08:50:39.613Z,11.15
2023-05-24T08:53:48.989Z,10.70
2023-05-24T08:56:52.675Z,9.88
2023-05-24T08:59:56.281Z,10.25
2023-05-24T09:02:59.402Z,10.90
2023-05-24T09:06:03.112Z,10.20
2023-05-24T09:09:09.272Z,10.07
2023-05-24T09:12:19.127Z,10.35
2023-05-24T09:15:25.035Z,10.10
2023-05-24T09:18:28.168Z,10.73
2023-05-24T09:21:32.832Z,13.88
2023-05-24T09:24:42.454Z,10.33
2023-05-24T09:27:50.509Z,10.15
2023-05-24T09:31:03.316Z,10.98
2023-05-24T09:34:11.616Z,10.15
2023-05-24T09:37:18.752Z,10.65
2023-05-24T09:40:21.999Z,9.57
2023-05-24T09:43:26.419Z,10.02
2023-05-24T09:46:30.086Z,10.95
2023-05-24T09:49:33.976Z,9.32
2023-05-24T09:52:37.751Z,9.70
2023-05-24T09:55:40.792Z,9.90
2023-05-24T09:58:45.096Z,10.48
2023-05-24T10:01:53.924Z,11.00
2023-05-24T10:05:01.235Z,10.10
2023-05-24T10:08:05.268Z,8.85
2023-05-24T10:11:09.686Z,10.10
2023-05-24T10:14:12.764Z,8.63
2023-05-24T10:17:16.249Z,8.85
2023-05-24T10:20:19.365Z,9.15
2023-05-24T10:23:22.486Z,9.30
2023-05-24T10:26:27.093Z,9.30
2023-05-24T10:30:01.699Z,8.13
2023-05-24T10:33:06.305Z,9.05
2023-05-24T10:36:11.036Z,8.50
2023-05-24T10:39:17.073Z,8.70
2023-05-24T10:42:23.002Z,8.10
2023-05-24T10:45:28.777Z,8.77
2023-05-24T10:48:38.204Z,8.18
2023-05-24T10:51:44.316Z,9.82
2023-05-24T10:55:07.738Z,8.13
2023-05-24T10:58:11.755Z,8.93
2023-05-24T11:01:27.171Z,7.60
2023-05-24T11:04:34.304Z,8.45
2023-05-24T11:07:45.446Z,7.88
2023-05-24T11:10:48.713Z,8.77
2023-05-24T11:13:56.938Z,8.70
2023-05-24T11:17:00.499Z,8.20
2023-05-24T11:20:05.506Z,8.85
2023-05-24T11:23:11.840Z,9.60
2023-05-24T11:26:15.124Z,7.68
2023-05-24T11:29:21.174Z,7.47
2023-05-24T11:32:25.296Z,8.07
2023-05-24T11:35:29.942Z,8.80
2023-05-24T11:38:33.024Z,7.82
2023-05-24T11:41:37.683Z,9.23
2023-05-24T11:44:40.756Z,7.67
2023-05-24T11:47:43.851Z,9.10
2023-05-24T11:50:50.404Z,8.07
2023-05-24T11:53:54.912Z,7.40
2023-05-24T11:56:57.991Z,9.23
2023-05-24T12:00:01.026Z,7.47
2023-05-24T12:03:07.539Z,8.00
2023-05-24T12:06:10.738Z,7.53
2023-05-24T12:09:15.008Z,6.30
2023-05-24T12:12:18.266Z,9.57
2023-05-24T12:15:22.341Z,8.60
2023-05-24T12:18:26.513Z,10.70
2023-05-24T12:21:33.410Z,8.60
2023-05-24T12:24:37.183Z,8.82
2023-05-24T12:27:48.000Z,8.85
2023-05-24T12:30:51.364Z,7.50
2023-05-24T12:33:54.640Z,7.00
2023-05-24T12:36:57.914Z,8.95
2023-05-24T12:40:01.898Z,8.23
2023-05-24T12:43:05.654Z,7.00
2023-05-24T12:46:08.665Z,7.90
2023-05-24T12:49:12.615Z,7.82
2023-05-24T12:52:15.926Z,7.55
2023-05-24T12:55:19.272Z,8.77
2023-05-24T12:58:22.525Z,7.40
2023-05-24T13:01:25.775Z,7.53
2023-05-24T13:04:30.711Z,8.38
2023-05-24T13:07:33.848Z,8.52
2023-05-24T13:10:37.320Z,8.65
2023-05-24T13:13:40.405Z,8.52
2023-05-24T13:16:44.276Z,8.30
2023-05-24T13:19:47.758Z,8.55
2023-05-24T13:22:51.425Z,8.02
2023-05-24T13:25:54.433Z,9.38
2023-05-24T13:32:04.002Z,7.97
2023-05-24T13:35:08.675Z,8.70
2023-05-24T13:38:12.720Z,10.38
2023-05-24T13:41:15.880Z,8.18
2023-05-24T13:44:18.958Z,8.68
2023-05-24T13:47:35.429Z,7.57
2023-05-24T13:50:44.763Z,9.13
2023-05-24T13:53:48.575Z,7.80
2023-05-24T13:56:51.964Z,7.35
2023-05-24T13:59:55.013Z,9.18
2023-05-24T14:02:58.394Z,8.43
2023-05-24T14:06:01.832Z,8.98
2023-05-24T14:09:07.591Z,8.85
2023-05-24T14:12:10.737Z,7.97
2023-05-24T14:15:13.759Z,9.15
2023-05-24T14:18:16.900Z,7.10
2023-05-24T14:21:21.742Z,9.10
2023-05-24T14:24:24.850Z,8.68
2023-05-24T14:27:27.963Z,8.38
2023-05-24T14:30:32.274Z,7.97
2023-05-24T14:33:35.460Z,8.03
2023-05-24T14:36:42.115Z,7.90
2023-05-24T14:39:45.226Z,8.48
2023-05-24T14:42:48.256Z,8.18
2023-05-24T14:45:51.465Z,7.22
2023-05-24T14:48:54.532Z,9.73
2023-05-24T14:51:57.538Z,8.90
2023-05-24T14:55:00.533Z,7.60
2023-05-24T14:58:03.755Z,7.95
2023-05-24T15:01:07.123Z,8.88
2023-05-24T15:04:10.170Z,7.57
2023-05-24T15:07:13.202Z,7.70
2023-05-24T15:10:16.212Z,7.40
2023-05-24T15:13:20.411Z,10.05
2023-05-24T15:16:23.498Z,7.85
2023-05-24T15:19:26.515Z,7.87
2023-05-24T15:22:29.621Z,7.90
2023-05-24T15:25:32.600Z,7.75
2023-05-24T15:28:35.575Z,7.38
2023-05-24T15:31:38.569Z,9.73
2023-05-24T15:34:41.625Z,8.90
2023-05-24T15:37:44.654Z,7.68
2023-05-24T15:40:47.861Z,8.90
2023-05-24T15:43:53.808Z,7.85
2023-05-24T15:46:57.021Z,8.48
2023-05-24T15:50:00.129Z,7.13
2023-05-24T15:53:03.538Z,8.18
2023-05-24T15:56:06.913Z,6.97
2023-05-24T15:59:09.918Z,8.15
2023-05-24T16:02:13.160Z,10.20
2023-05-24T16:05:16.285Z,6.87
2023-05-24T16:08:19.379Z,6.30
2023-05-24T16:11:23.692Z,7.28
2023-05-24T16:14:26.692Z,7.40
2023-05-24T16:17:29.825Z,8.07
2023-05-24T16:20:36.550Z,7.30
2023-05-24T16:23:39.741Z,6.75
2023-05-24T16:26:42.875Z,7.63
2023-05-24T16:29:46.936Z,7.63
2023-05-24T16:32:49.979Z,9.40
2023-05-24T16:35:55.955Z,8.10
2023-05-24T16:38:59.029Z,7.95
2023-05-24T16:42:02.394Z,6.97
2023-05-24T16:45:06.082Z,7.28
2023-05-24T16:48:12.218Z,7.85
2023-05-24T16:51:16.556Z,6.70
2023-05-24T16:54:19.588Z,7.63
2023-05-24T16:57:22.600Z,7.95
2023-05-24T17:00:26.023Z,7.85
2023-05-24T17:03:29.650Z,9.05
2023-05-24T17:06:32.973Z,7.70
2023-05-24T17:09:36.088Z,8.10
2023-05-24T17:12:40.241Z,7.80
2023-05-24T17:15:43.245Z,10.13
2023-05-24T17:18:46.316Z,8.68
2023-05-24T17:21:49.395Z,9.93
2023-05-24T17:24:52.387Z,7.75
2023-05-24T17:27:56.230Z,7.72
2023-05-24T17:31:02.546Z,8.38
2023-05-24T17:34:05.621Z,8.75
2023-05-24T17:37:08.655Z,7.90
2023-05-24T17:40:11.871Z,8.05
2023-05-24T17:43:14.901Z,8.13
2023-05-24T17:46:18.016Z,8.27
2023-05-24T17:49:21.075Z,8.57
2023-05-24T17:52:24.059Z,8.00
2023-05-24T17:55:27.683Z,8.60
2023-05-24T17:58:30.952Z,8.55
2023-05-24T18:01:33.962Z,8.15
2023-05-24T18:04:37.074Z,8.93
2023-05-24T18:07:40.072Z,10.10
2023-05-24T18:10:43.056Z,12.30
2023-05-24T18:13:46.545Z,11.45
2023-05-24T18:16:50.040Z,10.02
2023-05-24T18:19:53.140Z,10.43
2023-05-24T18:22:56.166Z,10.37
2023-05-24T18:26:00.406Z,10.80
2023-05-24T18:29:05.500Z,9.95
2023-05-24T18:32:08.586Z,8.98
2023-05-24T18:35:13.439Z,8.57
2023-05-24T18:38:16.470Z,9.43
2023-05-24T18:41:19.526Z,12.68
2023-05-24T18:44:22.760Z,8.93
2023-05-24T18:47:26.077Z,10.52
2023-05-24T18:50:29.112Z,9.60
2023-05-24T18:53:32.385Z,10.93
2023-05-24T18:56:35.358Z,8.82
2023-05-24T18:59:38.852Z,9.45
2023-05-24T19:02:42.041Z,9.25
2023-05-24T19:05:45.613Z,9.48
2023-05-24T19:08:51.689Z,12.13
2023-05-24T19:11:59.147Z,9.10
2023-05-24T19:15:02.958Z,8.68
2023-05-24T19:18:06.364Z,11.02
2023-05-24T19:21:09.400Z,8.60
2023-05-24T19:24:12.358Z,8.67
2023-05-24T19:27:18.081Z,8.38
2023-05-24T19:30:21.143Z,11.77
2023-05-24T19:33:24.115Z,9.40
2023-05-24T19:36:27.159Z,11.65
2023-05-24T19:39:30.130Z,9.20
2023-05-24T19:42:33.127Z,8.18
2023-05-24T19:45:36.121Z,9.70
2023-05-24T19:48:39.770Z,8.80
2023-05-24T19:51:42.738Z,8.77
2023-05-24T19:54:45.957Z,10.20
2023-05-24T19:57:49.029Z,9.52
2023-05-24T20:00:52.080Z,10.60
2023-05-24T20:03:55.266Z,10.80
2023-05-24T20:06:58.367Z,10.65
2023-05-24T20:10:01.359Z,9.80
2023-05-24T20:13:05.088Z,9.00
2023-05-24T20:16:08.129Z,9.00
2023-05-24T20:19:11.940Z,11.20
2023-05-24T20:22:16.218Z,11.63
2023-05-24T20:25:20.553Z,11.23
2023-05-24T20:28:30.755Z,10.30
2023-05-24T20:31:34.726Z,11.60
2023-05-24T20:34:37.730Z,13.13
2023-05-24T20:37:41.489Z,10.10
2023-05-24T20:40:44.505Z,11.63
2023-05-24T20:43:47.644Z,10.88
2023-05-24T20:46:50.643Z,10.48
2023-05-24T20:49:53.656Z,11.82
2023-05-24T20:52:56.657Z,9.75
2023-05-24T20:55:59.749Z,9.20
2023-05-24T20:59:02.789Z,10.57
2023-05-24T21:02:05.954Z,10.65
2023-05-24T21:05:09.371Z,11.10
2023-05-24T21:08:12.427Z,8.65
2023-05-24T21:11:15.431Z,9.73
2023-05-24T21:14:18.385Z,11.60
2023-05-24T21:17:21.385Z,9.23
2023-05-24T21:20:24.516Z,10.95
2023-05-24T21:23:27.512Z,9.38
2023-05-24T21:26:30.537Z,10.20
2023-05-24T21:29:34.142Z,11.82
2023-05-24T21:32:37.106Z,9.52
2023-05-24T21:35:40.158Z,10.15
2023-05-24T21:38:43.132Z,10.07
2023-05-24T21:41:46.118Z,9.57
2023-05-24T21:44:49.102Z,10.85
2023-05-24T21:47:52.103Z,11.05
2023-05-24T21:50:55.157Z,12.48
2023-05-24T21:53:58.211Z,9.60
2023-05-24T21:57:01.889Z,9.80
2023-05-24T22:00:05.222Z,10.23
2023-05-24T22:03:08.407Z,10.02
2023-05-24T22:06:11.676Z,11.93
2023-05-24T22:09:14.676Z,10.40
2023-05-24T22:12:17.692Z,9.83
2023-05-24T22:15:20.956Z,14.20
2023-05-24T22:18:27.545Z,12.18
2023-05-24T22:21:33.820Z,11.43
2023-05-24T22:24:37.018Z,10.77
2023-05-24T22:27:39.988Z,10.70
2023-05-24T22:30:42.977Z,10.77
2023-05-24T22:33:47.059Z,10.63
2023-05-24T22:36:50.099Z,10.45
2023-05-24T22:39:53.153Z,11.77
2023-05-24T22:42:56.152Z,11.13
2023-05-24T22:45:59.242Z,11.02
2023-05-24T22:49:05.891Z,10.68
2023-05-24T22:52:09.110Z,11.73
2023-05-24T22:55:12.273Z,11.73
2023-05-24T22:58:15.635Z,10.63
2023-05-24T23:01:18.722Z,14.05
2023-05-24T23:04:22.032Z,12.75
2023-05-24T23:07:25.186Z,12.23
2023-05-24T23:10:28.232Z,11.85
2023-05-24T23:13:33.361Z,12.27
2023-05-24T23:16:40.318Z,11.32
2023-05-24T23:19:43.465Z,12.70
2023-05-24T23:22:46.834Z,11.07
2023-05-24T23:25:53.162Z,12.88
2023-05-24T23:28:56.331Z,13.23
2023-05-24T23:31:59.625Z,11.65
2023-05-24T23:35:02.578Z,14.70
2023-05-24T23:38:05.862Z,14.68
2023-05-24T23:41:08.848Z,11.90
2023-05-24T23:44:11.860Z,12.37
2023-05-24T23:47:14.810Z,15.32
2023-05-24T23:50:18.324Z,12.30
2023-05-24T23:53:21.368Z,11.60
2023-05-24T23:56:24.360Z,11.73
2023-05-24T23:59:27.359Z,13.00
